Time;durP1;ratioP1;P1;durP2;ratioP2;P2;SDS_P1;SDS_P2;PMS_P1;PMS_P2;Temp;Humidity;BMP_temperature;BMP_pressure;BME280_temperature;BME280_humidity;BME280_pressure;Samples;Min_cycle;Max_cycle;Signal;HPM_P1;HPM_P2
2021/08/09 00:00:38;;;;;;;1.97;1.80;;;15.30;99.90;;;;;;5072554;28;20158;-72
2021/08/09 00:03:03;;;;;;;2.63;1.40;;;15.20;99.90;;;;;;5072485;28;20413;-72
2021/08/09 00:05:29;;;;;;;4.53;2.47;;;15.30;99.90;;;;;;5072552;28;20440;-72
2021/08/09 00:07:55;;;;;;;3.07;2.00;;;15.30;99.90;;;;;;5072568;28;20186;-72
2021/08/09 00:10:21;;;;;;;2.83;2.37;;;15.30;99.90;;;;;;5072639;28;20178;-72
2021/08/09 00:12:47;;;;;;;4.77;2.67;;;15.30;99.90;;;;;;5072407;28;20855;-72
2021/08/09 00:15:12;;;;;;;3.90;1.90;;;15.30;99.90;;;;;;5072850;28;20472;-72
2021/08/09 00:17:38;;;;;;;2.67;1.97;;;15.40;99.90;;;;;;5072250;28;20273;-72
2021/08/09 00:20:06;;;;;;;5.40;1.90;;;15.40;99.90;;;;;;5072104;28;20251;-72
2021/08/09 00:22:31;;;;;;;10.00;5.80;;;15.40;99.90;;;;;;5072461;28;20249;-72
2021/08/09 00:24:57;;;;;;;3.90;2.83;;;15.40;99.90;;;;;;5072232;28;20857;-72
2021/08/09 00:27:22;;;;;;;14.10;3.93;;;15.40;99.90;;;;;;5072102;28;20177;-72
2021/08/09 00:29:48;;;;;;;4.20;2.90;;;15.40;99.90;;;;;;5072201;28;20210;-72
2021/08/09 00:32:13;;;;;;;4.40;2.67;;;15.40;99.90;;;;;;5072157;28;20185;-72
2021/08/09 00:34:39;;;;;;;2.40;2.20;;;15.40;99.90;;;;;;5072158;28;20165;-72
2021/08/09 00:37:05;;;;;;;4.13;2.13;;;15.40;99.90;;;;;;5072284;28;20531;-72
2021/08/09 00:39:31;;;;;;;2.70;2.00;;;15.40;99.90;;;;;;5072069;28;20188;-72
2021/08/09 00:41:56;;;;;;;3.17;2.00;;;15.40;99.90;;;;;;5072049;28;20750;-72
2021/08/09 00:44:22;;;;;;;2.00;1.80;;;15.40;99.90;;;;;;5072011;28;20452;-72
2021/08/09 00:46:48;;;;;;;5.63;2.30;;;15.40;99.90;;;;;;5071989;28;20722;-72
2021/08/09 00:49:13;;;;;;;3.63;2.07;;;15.40;99.90;;;;;;5072091;28;20173;-72
2021/08/09 00:51:39;;;;;;;4.93;1.93;;;15.30;99.90;;;;;;5072358;28;20171;-72
2021/08/09 00:54:05;;;;;;;3.40;1.90;;;15.30;99.90;;;;;;5072054;28;20234;-72
2021/08/09 00:56:30;;;;;;;1.97;1.57;;;15.30;99.90;;;;;;5072324;28;20263;-72
2021/08/09 00:58:58;;;;;;;3.57;2.27;;;15.30;99.90;;;;;;5072078;28;20211;-72
2021/08/09 01:01:24;;;;;;;2.07;1.80;;;15.30;99.90;;;;;;5071844;28;20182;-72
2021/08/09 01:03:50;;;;;;;3.10;2.40;;;15.30;99.90;;;;;;5071686;28;20412;-73
2021/08/09 01:06:15;;;;;;;3.37;1.67;;;15.30;99.90;;;;;;5072255;28;20395;-72
2021/08/09 01:11:31;;;;;;;5.07;2.13;;;15.40;99.90;;;;;;5069920;28;20537;-73
2021/08/09 01:16:43;;;;;;;3.17;2.20;;;15.30;99.90;;;;;;5069824;28;20507;-71
2021/08/09 01:22:29;;;;;;;3.27;2.20;;;15.30;99.90;;;;;;5071500;28;21097;-72
2021/08/09 01:25:12;;;;;;;2.47;2.13;;;15.30;99.90;;;;;;5054849;28;20401;-72
2021/08/09 01:27:40;;;;;;;4.50;2.07;;;15.20;99.90;;;;;;5069696;28;20452;-72
2021/08/09 01:30:09;;;;;;;2.07;1.57;;;15.20;99.90;;;;;;5069643;28;20730;-72
2021/08/09 01:32:37;;;;;;;2.30;2.07;;;15.10;99.90;;;;;;5069758;28;20407;-72
2021/08/09 01:35:07;;;;;;;2.60;2.20;;;15.10;99.90;;;;;;5069609;28;20453;-72
2021/08/09 01:37:36;;;;;;;2.23;1.83;;;15.00;99.90;;;;;;5069349;28;20416;-72
2021/08/09 01:40:05;;;;;;;3.60;2.30;;;15.00;99.90;;;;;;5069341;28;20811;-72
2021/08/09 01:42:31;;;;;;;4.27;2.77;;;14.90;99.90;;;;;;5069335;28;20393;-72
2021/08/09 01:44:57;;;;;;;7.27;2.97;;;14.90;99.90;;;;;;5069420;28;20469;-72
2021/08/09 01:47:22;;;;;;;9.57;4.67;;;14.90;99.90;;;;;;5069506;28;20605;-72
2021/08/09 01:49:49;;;;;;;5.60;3.77;;;14.80;99.90;;;;;;5069316;28;20506;-72
2021/08/09 01:52:15;;;;;;;8.10;4.30;;;14.80;99.90;;;;;;5068861;28;20919;-72
2021/08/09 01:54:41;;;;;;;13.87;6.60;;;14.80;99.90;;;;;;5069102;28;20831;-72
2021/08/09 01:57:07;;;;;;;9.30;4.13;;;14.80;99.90;;;;;;5069400;28;20455;-72
2021/08/09 01:59:32;;;;;;;9.03;5.70;;;14.80;99.90;;;;;;5068877;28;20427;-72
2021/08/09 02:01:58;;;;;;;6.67;4.30;;;14.80;99.90;;;;;;5069257;28;20583;-72
2021/08/09 02:04:23;;;;;;;7.30;3.63;;;14.80;99.90;;;;;;5068904;28;20156;-72
2021/08/09 02:06:49;;;;;;;2.97;2.30;;;14.80;99.90;;;;;;5069073;28;20213;-72
2021/08/09 02:09:16;;;;;;;4.53;2.00;;;14.80;99.90;;;;;;5068057;28;20191;-72
2021/08/09 02:14:31;;;;;;;3.80;2.43;;;14.80;99.90;;;;;;5070331;28;20506;-72
2021/08/09 02:17:23;;;;;;;2.53;1.73;;;14.80;99.90;;;;;;5070663;28;20395;-72
2021/08/09 02:19:59;;;;;;;4.30;1.93;;;14.80;99.90;;;;;;5068699;28;20503;-72
2021/08/09 02:22:47;;;;;;;8.23;3.10;;;14.80;99.90;;;;;;5069628;28;20381;-70
2021/08/09 02:25:16;;;;;;;6.87;2.10;;;14.80;99.90;;;;;;5069539;28;20390;-70
2021/08/09 02:27:50;;;;;;;2.47;2.27;;;14.80;99.90;;;;;;5054351;28;20410;-70
2021/08/09 02:30:18;;;;;;;4.00;2.30;;;14.90;99.90;;;;;;5050259;28;20400;-70
2021/08/09 02:32:45;;;;;;;2.20;1.50;;;14.90;99.90;;;;;;5051473;28;20450;-70
2021/08/09 02:35:15;;;;;;;2.10;1.90;;;14.90;99.90;;;;;;5049518;28;20384;-70
2021/08/09 02:37:42;;;;;;;4.63;3.27;;;15.00;99.90;;;;;;5049438;28;20882;-70
2021/08/09 02:40:08;;;;;;;2.40;1.70;;;15.00;99.90;;;;;;5049305;28;20398;-69
2021/08/09 02:42:34;;;;;;;1.80;1.60;;;15.00;99.90;;;;;;5049362;28;20402;-69
2021/08/09 02:45:01;;;;;;;5.90;2.17;;;15.00;99.90;;;;;;5050383;28;20966;-69
2021/08/09 02:47:27;;;;;;;3.83;2.00;;;15.00;99.90;;;;;;5049227;28;20162;-69
2021/08/09 02:49:54;;;;;;;2.73;1.80;;;15.10;99.90;;;;;;5048966;28;20402;-69
2021/08/09 02:52:21;;;;;;;2.93;2.07;;;15.10;99.90;;;;;;5048867;28;20477;-69
2021/08/09 02:54:48;;;;;;;2.57;1.70;;;15.10;99.90;;;;;;5048985;28;20386;-69
2021/08/09 02:57:15;;;;;;;4.03;2.40;;;15.10;99.90;;;;;;5049063;28;20392;-71
2021/08/09 02:59:41;;;;;;;7.13;2.17;;;15.10;99.90;;;;;;5048853;28;20436;-71
2021/08/09 03:02:08;;;;;;;3.00;2.10;;;15.10;99.90;;;;;;5050233;28;20769;-71
2021/08/09 03:04:36;;;;;;;2.87;2.03;;;15.10;99.90;;;;;;5048831;28;20581;-71
2021/08/09 03:07:06;;;;;;;2.10;1.83;;;15.10;99.90;;;;;;5049107;28;20452;-71
2021/08/09 03:09:34;;;;;;;3.20;1.63;;;15.10;99.90;;;;;;5048828;28;20395;-72
2021/08/09 03:12:00;;;;;;;2.70;1.60;;;15.10;99.90;;;;;;5048550;28;20464;-71
2021/08/09 03:14:30;;;;;;;8.43;2.30;;;15.10;99.90;;;;;;5048721;28;20401;-71
2021/08/09 03:16:56;;;;;;;2.37;1.90;;;15.10;99.90;;;;;;5049519;28;20417;-71
2021/08/09 03:19:21;;;;;;;5.20;1.90;;;15.00;99.90;;;;;;5049132;28;20437;-71
2021/08/09 03:21:51;;;;;;;2.47;2.00;;;15.10;99.90;;;;;;5049094;28;20166;-71
2021/08/09 03:24:18;;;;;;;2.10;1.90;;;15.00;99.90;;;;;;5043739;28;20158;-71
2021/08/09 03:26:43;;;;;;;4.07;1.67;;;15.00;99.90;;;;;;5035384;28;20401;-71
2021/08/09 03:29:09;;;;;;;4.97;2.10;;;15.00;99.90;;;;;;5035129;28;20769;-71
2021/08/09 03:31:34;;;;;;;4.60;2.53;;;15.00;99.90;;;;;;5035444;28;20209;-71
2021/08/09 03:34:00;;;;;;;2.37;1.83;;;15.00;99.90;;;;;;5035613;28;20556;-71
2021/08/09 03:36:25;;;;;;;2.70;1.87;;;15.00;99.90;;;;;;5035608;28;20193;-71
2021/08/09 03:38:51;;;;;;;3.60;2.07;;;15.00;99.90;;;;;;5035191;28;20164;-71
2021/08/09 03:41:16;;;;;;;2.83;1.90;;;15.00;99.90;;;;;;5034870;28;20163;-71
2021/08/09 03:43:42;;;;;;;2.57;2.10;;;15.00;99.90;;;;;;5035195;28;20178;-71
2021/08/09 03:46:07;;;;;;;2.83;1.73;;;15.00;99.90;;;;;;5035343;28;20503;-71
2021/08/09 03:48:33;;;;;;;2.60;1.80;;;15.00;99.90;;;;;;5034816;28;20166;-71
2021/08/09 03:50:58;;;;;;;4.60;2.00;;;15.00;99.90;;;;;;5035424;28;20583;-71
2021/08/09 03:53:24;;;;;;;3.00;2.37;;;15.00;99.90;;;;;;5046870;28;20209;-71
2021/08/09 03:55:50;;;;;;;1.70;1.60;;;15.00;99.90;;;;;;5054875;28;20555;-71
2021/08/09 03:58:15;;;;;;;2.50;2.03;;;15.00;99.90;;;;;;5054545;28;20540;-71
2021/08/09 04:00:41;;;;;;;2.90;2.03;;;15.00;99.90;;;;;;5054755;28;20154;-71
2021/08/09 04:03:06;;;;;;;5.93;2.53;;;15.00;99.90;;;;;;5054573;28;20226;-71
2021/08/09 04:05:32;;;;;;;1.53;1.43;;;15.00;99.90;;;;;;5054502;28;20158;-71
2021/08/09 04:07:57;;;;;;;3.27;2.17;;;15.00;99.90;;;;;;5053814;28;20512;-71
2021/08/09 04:10:23;;;;;;;4.07;1.73;;;15.00;99.90;;;;;;5053847;28;20185;-71
2021/08/09 04:12:49;;;;;;;3.37;1.90;;;15.00;99.90;;;;;;5054118;28;20222;-71
2021/08/09 04:15:14;;;;;;;2.93;1.93;;;15.00;99.90;;;;;;5054512;28;20163;-71
2021/08/09 04:17:40;;;;;;;4.63;1.90;;;15.00;99.90;;;;;;5054224;28;20280;-71
2021/08/09 04:20:06;;;;;;;3.30;1.80;;;15.00;99.90;;;;;;5054310;28;20664;-71
2021/08/09 04:22:32;;;;;;;2.40;2.13;;;15.00;99.90;;;;;;5054226;28;20166;-71
2021/08/09 04:24:57;;;;;;;2.90;2.50;;;15.00;99.90;;;;;;5053784;28;20416;-71
2021/08/09 04:27:23;;;;;;;6.90;1.70;;;15.00;99.90;;;;;;5053699;28;20222;-71
2021/08/09 04:29:48;;;;;;;3.73;2.23;;;15.00;99.90;;;;;;5049773;28;20179;-71
2021/08/09 04:32:16;;;;;;;1.83;1.70;;;15.00;99.90;;;;;;5037839;28;20168;-71
2021/08/09 04:34:43;;;;;;;8.43;2.03;;;15.00;99.90;;;;;;5041357;28;20234;-71
2021/08/09 04:37:08;;;;;;;3.03;1.70;;;15.00;99.90;;;;;;5046397;28;20520;-71
2021/08/09 04:39:34;;;;;;;2.50;1.60;;;14.90;99.90;;;;;;5035597;28;20875;-71
2021/08/09 04:41:59;;;;;;;2.50;1.90;;;14.90;99.90;;;;;;5037107;28;20172;-71
2021/08/09 04:44:25;;;;;;;2.60;2.03;;;14.90;99.90;;;;;;5044783;28;20187;-71
2021/08/09 04:46:50;;;;;;;2.90;2.60;;;15.00;99.90;;;;;;5035930;28;21612;-71
2021/08/09 04:49:16;;;;;;;2.80;2.07;;;15.00;99.90;;;;;;5053633;28;20160;-71
2021/08/09 04:51:41;;;;;;;2.50;2.23;;;15.00;99.90;;;;;;5046535;28;20204;-71
2021/08/09 04:54:07;;;;;;;3.30;2.20;;;15.00;99.90;;;;;;5042954;28;20199;-71
2021/08/09 04:56:32;;;;;;;2.63;1.93;;;15.00;99.90;;;;;;5042981;28;20171;-71
2021/08/09 04:58:58;;;;;;;2.00;1.73;;;15.00;99.90;;;;;;5051835;28;20202;-71
2021/08/09 05:01:23;;;;;;;1.63;1.47;;;15.10;99.90;;;;;;5037827;28;20266;-71
2021/08/09 05:03:49;;;;;;;5.00;1.90;;;15.10;99.90;;;;;;5037024;28;20192;-71
2021/08/09 05:06:15;;;;;;;3.23;2.40;;;15.10;99.90;;;;;;5038517;28;20181;-71
2021/08/09 05:08:41;;;;;;;2.30;1.50;;;15.20;99.90;;;;;;5036675;28;20199;-71
2021/08/09 05:11:06;;;;;;;3.40;1.90;;;15.20;99.90;;;;;;5036819;28;20305;-71
2021/08/09 05:13:32;;;;;;;3.20;2.37;;;15.30;99.90;;;;;;5037238;28;20870;-71
2021/08/09 05:15:57;;;;;;;1.30;1.20;;;15.30;99.90;;;;;;5045430;28;20459;-71
2021/08/09 05:18:23;;;;;;;2.83;1.90;;;15.40;99.90;;;;;;5044072;28;20191;-71
2021/08/09 05:20:49;;;;;;;1.87;1.63;;;15.50;99.90;;;;;;5033382;28;20184;-71
2021/08/09 05:23:14;;;;;;;2.83;1.70;;;15.50;99.90;;;;;;5037454;28;20620;-71
2021/08/09 05:25:41;;;;;;;3.47;1.77;;;15.60;99.90;;;;;;5042641;28;20218;-71
2021/08/09 05:28:06;;;;;;;2.10;1.57;;;15.60;99.90;;;;;;5045252;28;20636;-71
2021/08/09 05:30:32;;;;;;;2.00;1.57;;;15.70;99.90;;;;;;5046933;28;20430;-71
2021/08/09 05:33:00;;;;;;;2.43;1.73;;;15.70;99.90;;;;;;5037339;28;20291;-71
2021/08/09 05:35:26;;;;;;;2.03;1.20;;;15.80;99.90;;;;;;5040534;28;20219;-71
2021/08/09 05:37:52;;;;;;;1.90;1.43;;;15.80;99.90;;;;;;5037021;28;20422;-71
2021/08/09 05:40:17;;;;;;;1.47;1.37;;;15.90;99.90;;;;;;5034350;28;20173;-71
2021/08/09 05:42:47;;;;;;;2.27;1.60;;;15.90;99.90;;;;;;5032930;28;20192;-71
2021/08/09 05:45:12;;;;;;;1.50;1.40;;;15.90;99.90;;;;;;5037767;28;20178;-71
2021/08/09 05:47:38;;;;;;;2.17;1.30;;;16.00;99.90;;;;;;5037053;28;20442;-71
2021/08/09 05:50:04;;;;;;;5.20;2.50;;;16.00;99.90;;;;;;5033271;28;20203;-71
2021/08/09 05:52:29;;;;;;;2.50;1.47;;;16.00;99.90;;;;;;5039153;28;20564;-71
2021/08/09 05:55:03;;;;;;;2.63;1.50;;;16.10;99.90;;;;;;5038699;28;20211;-71
2021/08/09 05:57:28;;;;;;;1.73;1.60;;;16.10;99.90;;;;;;5042321;28;20176;-71
2021/08/09 05:59:54;;;;;;;2.23;1.60;;;16.10;99.90;;;;;;5040768;28;21106;-71
2021/08/09 06:02:19;;;;;;;1.97;1.57;;;16.20;99.90;;;;;;5041240;28;20161;-71
2021/08/09 06:04:45;;;;;;;3.13;1.27;;;16.20;99.90;;;;;;5040452;28;20173;-71
2021/08/09 06:07:13;;;;;;;2.23;1.37;;;16.20;99.90;;;;;;5037012;28;20175;-70
2021/08/09 06:09:39;;;;;;;1.90;1.10;;;16.20;99.90;;;;;;5039689;28;20182;-71
2021/08/09 06:12:05;;;;;;;1.47;1.30;;;16.20;99.90;;;;;;5041357;28;20418;-71
2021/08/09 06:14:30;;;;;;;3.03;1.50;;;16.20;99.90;;;;;;5039653;28;20447;-71
2021/08/09 06:16:56;;;;;;;2.07;1.60;;;16.30;99.90;;;;;;5049908;28;20760;-71
2021/08/09 06:19:21;;;;;;;1.30;1.20;;;16.30;99.90;;;;;;5034063;28;20173;-71
2021/08/09 06:21:47;;;;;;;3.33;1.60;;;16.30;99.90;;;;;;5040038;28;20172;-71
2021/08/09 06:24:12;;;;;;;1.90;1.50;;;16.40;99.90;;;;;;5037642;28;20517;-71
2021/08/09 06:26:38;;;;;;;3.20;1.53;;;16.40;99.90;;;;;;5036131;28;20309;-71
2021/08/09 06:29:03;;;;;;;7.37;1.67;;;16.40;99.90;;;;;;5041421;28;20183;-71
2021/08/09 06:31:29;;;;;;;1.90;1.23;;;16.40;99.90;;;;;;5040690;28;20179;-71
2021/08/09 06:33:54;;;;;;;1.50;1.30;;;16.50;99.90;;;;;;5043732;28;20663;-71
2021/08/09 06:36:20;;;;;;;2.60;1.73;;;16.50;99.90;;;;;;5042848;28;20238;-71
2021/08/09 06:38:45;;;;;;;2.43;1.47;;;16.60;99.90;;;;;;5045305;28;20172;-71
2021/08/09 06:41:11;;;;;;;2.13;1.57;;;16.60;99.90;;;;;;5038997;28;20270;-71
2021/08/09 06:43:37;;;;;;;3.03;1.60;;;16.70;99.90;;;;;;5031991;28;20256;-71
2021/08/09 06:46:02;;;;;;;1.53;1.43;;;16.80;99.90;;;;;;5032850;28;20173;-71
2021/08/09 06:48:28;;;;;;;1.23;1.00;;;16.80;99.90;;;;;;5032165;28;20181;-71
2021/08/09 06:50:53;;;;;;;1.87;1.73;;;16.90;99.90;;;;;;5036259;28;20187;-71
2021/08/09 06:53:19;;;;;;;1.90;1.50;;;17.00;99.90;;;;;;5038019;28;20196;-71
2021/08/09 06:55:45;;;;;;;1.47;1.20;;;17.10;99.90;;;;;;5041562;28;20168;-71
2021/08/09 06:58:10;;;;;;;2.20;1.40;;;17.10;99.90;;;;;;5048607;28;20260;-71
2021/08/09 07:00:36;;;;;;;2.27;1.23;;;17.20;99.90;;;;;;5034779;28;20182;-71
2021/08/09 07:03:08;;;;;;;2.23;1.30;;;17.30;99.90;;;;;;5034874;28;20185;-71
2021/08/09 07:05:42;;;;;;;1.53;1.27;;;17.40;99.90;;;;;;5042288;28;20294;-71
2021/08/09 07:08:08;;;;;;;2.83;1.90;;;17.50;99.90;;;;;;5036740;28;20415;-71
2021/08/09 07:10:34;;;;;;;2.17;1.10;;;17.50;99.90;;;;;;5041425;28;20431;-71
2021/08/09 07:12:59;;;;;;;1.90;1.50;;;17.60;99.90;;;;;;5040721;28;20483;-71
2021/08/09 07:15:25;;;;;;;3.30;2.30;;;17.80;99.90;;;;;;5043874;28;20654;-71
2021/08/09 07:17:50;;;;;;;2.20;1.43;;;17.90;99.90;;;;;;5043456;28;20178;-71
2021/08/09 07:20:16;;;;;;;5.93;1.47;;;18.10;99.90;;;;;;5040374;28;20188;-71
2021/08/09 07:22:44;;;;;;;2.60;1.57;;;18.30;99.90;;;;;;5043540;28;20263;-71
2021/08/09 07:25:11;;;;;;;2.80;1.90;;;18.50;99.90;;;;;;5038767;28;20176;-71
2021/08/09 07:27:37;;;;;;;1.57;1.20;;;18.60;99.90;;;;;;5040872;28;20500;-71
2021/08/09 07:30:06;;;;;;;2.90;1.70;;;18.60;99.90;;;;;;5042687;28;20419;-71
2021/08/09 07:32:32;;;;;;;1.80;1.47;;;18.60;99.90;;;;;;5042419;28;20545;-71
2021/08/09 07:34:57;;;;;;;2.97;1.40;;;18.60;99.90;;;;;;5042150;28;20509;-71
2021/08/09 07:37:23;;;;;;;1.40;1.10;;;18.50;99.90;;;;;;5046106;28;20164;-71
2021/08/09 07:39:49;;;;;;;3.60;1.83;;;18.60;99.90;;;;;;5046003;28;20168;-71
2021/08/09 07:42:14;;;;;;;2.13;1.40;;;18.70;99.90;;;;;;5038325;28;20218;-71
2021/08/09 07:44:40;;;;;;;2.90;1.40;;;18.90;99.90;;;;;;5039039;28;20252;-71
2021/08/09 07:47:05;;;;;;;8.00;1.40;;;19.10;99.90;;;;;;5037356;28;20176;-70
2021/08/09 07:49:31;;;;;;;2.73;1.10;;;19.30;99.90;;;;;;5042288;28;20172;-70
2021/08/09 07:51:57;;;;;;;1.57;1.30;;;19.50;99.90;;;;;;5043763;28;20183;-70
2021/08/09 07:54:24;;;;;;;1.30;1.20;;;19.80;99.90;;;;;;5040099;28;20188;-70
2021/08/09 07:56:50;;;;;;;1.47;1.37;;;20.40;99.90;;;;;;5037677;28;20715;-70
2021/08/09 07:59:16;;;;;;;2.60;1.33;;;21.00;99.90;;;;;;5038363;28;20460;-70
2021/08/09 08:01:41;;;;;;;1.50;1.37;;;21.60;99.90;;;;;;5036517;28;20225;-70
2021/08/09 08:04:07;;;;;;;1.33;0.93;;;22.30;99.90;;;;;;5036406;28;20590;-70
2021/08/09 08:06:33;;;;;;;1.40;0.90;;;23.00;99.90;;;;;;5037986;28;20255;-71
2021/08/09 08:08:59;;;;;;;1.00;0.90;;;23.70;99.90;;;;;;5034528;28;20177;-71
2021/08/09 08:11:25;;;;;;;0.97;0.87;;;24.50;99.90;;;;;;5040146;28;20430;-71
2021/08/09 08:13:50;;;;;;;3.23;1.00;;;25.20;99.90;;;;;;5041201;28;20210;-71
2021/08/09 08:16:17;;;;;;;1.33;1.00;;;25.30;99.60;;;;;;5040651;28;20967;-71
2021/08/09 08:18:42;;;;;;;1.00;0.90;;;25.40;97.60;;;;;;5042353;28;20208;-71
2021/08/09 08:21:08;;;;;;;1.60;1.27;;;25.20;97.60;;;;;;5040780;28;20437;-71
2021/08/09 08:23:34;;;;;;;1.50;0.80;;;25.30;98.00;;;;;;5041437;28;20674;-71
2021/08/09 08:25:59;;;;;;;2.50;1.40;;;25.30;96.90;;;;;;5042610;28;20177;-71
2021/08/09 08:28:25;;;;;;;2.40;1.03;;;25.30;97.30;;;;;;5038379;28;20192;-71
2021/08/09 08:30:52;;;;;;;1.83;1.20;;;25.30;96.20;;;;;;5038731;28;20584;-71
2021/08/09 08:33:18;;;;;;;2.60;1.07;;;24.80;96.90;;;;;;5038234;28;20509;-71
2021/08/09 08:35:44;;;;;;;2.70;0.90;;;24.50;97.00;;;;;;5041037;28;20422;-71
2021/08/09 08:38:09;;;;;;;5.60;1.43;;;24.30;97.70;;;;;;5039806;28;20212;-71
2021/08/09 08:40:39;;;;;;;1.60;0.87;;;24.50;98.30;;;;;;5038522;28;20172;-71
2021/08/09 08:43:05;;;;;;;1.00;0.90;;;25.30;97.10;;;;;;5043981;28;20168;-71
2021/08/09 08:45:32;;;;;;;4.13;1.13;;;26.70;95.20;;;;;;5041580;28;20785;-71
2021/08/09 08:47:57;;;;;;;4.80;1.57;;;27.90;93.20;;;;;;5033708;28;20177;-72
2021/08/09 08:50:23;;;;;;;1.80;1.20;;;28.80;91.20;;;;;;5035633;28;20481;-72
2021/08/09 08:52:51;;;;;;;4.73;1.07;;;29.60;84.70;;;;;;5043507;28;20200;-72
2021/08/09 08:55:18;;;;;;;1.97;1.20;;;30.20;79.30;;;;;;5039734;28;20176;-72
2021/08/09 08:57:45;;;;;;;2.50;0.87;;;30.70;72.60;;;;;;5037598;28;20481;-72
2021/08/09 09:00:13;;;;;;;3.03;2.30;;;30.80;69.40;;;;;;5039466;28;20450;-72
2021/08/09 09:02:39;;;;;;;2.27;1.00;;;31.40;67.40;;;;;;5037251;28;20431;-73
2021/08/09 09:07:45;;;;;;;1.37;0.90;;;31.80;66.00;;;;;;5052130;28;20668;-72
2021/08/09 09:10:29;;;;;;;1.20;0.80;;;32.60;59.40;;;;;;5043964;28;20458;-72
2021/08/09 09:13:14;;;;;;;0.80;0.80;;;32.80;58.00;;;;;;5044817;28;20703;-72
2021/08/09 09:16:03;;;;;;;1.30;0.90;;;32.90;57.40;;;;;;5046704;28;20423;-72
2021/08/09 09:18:53;;;;;;;1.53;1.40;;;33.00;56.60;;;;;;5045303;28;20430;-73
2021/08/09 09:24:15;;;;;;;2.53;1.23;;;32.50;56.60;;;;;;5051092;28;20525;-71
2021/08/09 09:26:42;;;;;;;1.23;0.90;;;32.80;56.50;;;;;;5046264;28;20423;-71
2021/08/09 09:29:11;;;;;;;1.80;0.90;;;32.40;56.40;;;;;;5047354;28;20426;-72
2021/08/09 09:31:37;;;;;;;1.07;0.97;;;32.60;56.10;;;;;;5048359;28;20456;-72
2021/08/09 09:34:08;;;;;;;2.20;0.93;;;32.70;56.50;;;;;;5048086;28;20468;-72
2021/08/09 09:39:40;;;;;;;1.73;0.80;;;32.80;54.80;;;;;;5064671;28;20963;-71
2021/08/09 09:42:10;;;;;;;1.30;1.00;;;31.70;54.50;;;;;;5048107;28;20499;-72
2021/08/09 09:44:38;;;;;;;1.47;0.97;;;31.00;56.30;;;;;;5049574;28;20430;-71
2021/08/09 09:47:26;;;;;;;2.00;1.00;;;30.70;57.20;;;;;;5047460;28;20480;-72
2021/08/09 09:49:55;;;;;;;1.20;0.90;;;29.80;57.10;;;;;;5047063;28;20797;-71
2021/08/09 09:52:40;;;;;;;1.40;0.93;;;29.00;58.40;;;;;;5047410;28;20845;-71
2021/08/09 09:55:09;;;;;;;0.97;0.83;;;28.20;60.80;;;;;;5047194;28;20541;-71
2021/08/09 09:57:36;;;;;;;1.77;1.27;;;27.40;62.60;;;;;;5045719;28;20967;-71
2021/08/09 10:00:03;;;;;;;1.50;1.17;;;27.00;65.90;;;;;;5042944;28;20450;-71
2021/08/09 10:02:28;;;;;;;1.50;1.30;;;26.50;68.60;;;;;;5064070;28;20414;-71
2021/08/09 10:04:55;;;;;;;1.97;1.17;;;26.10;70.10;;;;;;5035690;28;20430;-70
2021/08/09 10:07:29;;;;;;;1.53;1.03;;;25.70;70.40;;;;;;5031825;28;20188;-70
2021/08/09 10:09:55;;;;;;;1.40;1.00;;;25.50;71.30;;;;;;5044319;28;20437;-71
2021/08/09 10:12:24;;;;;;;3.33;1.57;;;25.40;73.30;;;;;;5041200;28;20541;-71
2021/08/09 10:14:52;;;;;;;1.80;1.00;;;25.40;75.40;;;;;;5031554;28;20426;-71
2021/08/09 10:17:19;;;;;;;1.40;0.77;;;25.30;75.30;;;;;;5035500;28;20549;-70
2021/08/09 10:19:48;;;;;;;1.53;1.07;;;25.20;75.70;;;;;;5044255;28;20427;-70
2021/08/09 10:22:17;;;;;;;2.60;1.07;;;25.00;74.10;;;;;;5033929;28;20489;-70
2021/08/09 10:24:43;;;;;;;1.63;0.93;;;24.90;75.50;;;;;;5030986;28;20510;-70
2021/08/09 10:27:09;;;;;;;2.20;1.20;;;24.70;75.20;;;;;;5034934;28;20504;-72
2021/08/09 10:32:50;;;;;;;2.20;1.17;;;24.80;78.50;;;;;;5056394;28;20930;-72
2021/08/09 10:38:34;;;;;;;2.00;1.00;;;24.90;78.60;;;;;;5059684;28;20546;-70
2021/08/09 10:43:57;;;;;;;2.90;1.20;;;24.70;76.80;;;;;;5030938;27;20968;-72
2021/08/09 10:46:43;;;;;;;1.73;1.13;;;24.20;76.00;;;;;;5004465;28;20439;-72
2021/08/09 10:49:30;;;;;;;1.40;1.23;;;24.00;77.60;;;;;;5020350;28;21049;-72
2021/08/09 10:54:35;;;;;;;1.40;0.90;;;23.90;76.60;;;;;;5013498;27;20563;-72
2021/08/09 10:57:01;;;;;;;1.73;1.20;;;23.60;76.30;;;;;;4999797;28;20525;-72
2021/08/09 10:59:47;;;;;;;1.90;1.20;;;23.40;76.30;;;;;;4990295;28;20462;-72
2021/08/09 11:11:01;;;;;;;1.33;1.20;;;23.20;79.50;;;;;;5051165;28;21434;-70
2021/08/09 11:13:29;;;;;;;1.30;1.00;;;23.40;79.10;;;;;;5054916;28;20482;-71
2021/08/09 11:18:35;;;;;;;2.80;1.23;;;23.40;80.10;;;;;;5058563;28;21061;-75
2021/08/09 11:26:19;;;;;;;1.70;1.00;;;23.50;80.70;;;;;;5123135;27;20547;-71
2021/08/09 11:28:57;;;;;;;1.97;0.90;;;23.30;79.20;;;;;;5107753;28;20437;-71
2021/08/09 11:31:23;;;;;;;6.37;1.03;;;23.20;77.70;;;;;;5113160;28;20444;-71
2021/08/09 11:33:48;;;;;;;1.57;1.00;;;23.20;83.10;;;;;;5107936;27;20427;-72
2021/08/09 11:36:15;;;;;;;1.83;1.30;;;23.30;82.50;;;;;;5105587;28;20217;-71
2021/08/09 11:41:24;;;;;;;1.40;0.93;;;23.40;81.70;;;;;;5048611;28;20562;-75
2021/08/09 11:43:56;;;;;;;3.13;1.23;;;23.40;80.20;;;;;;5047355;28;20753;-75
2021/08/09 11:46:22;;;;;;;2.90;1.50;;;23.50;83.70;;;;;;5043999;28;20419;-75
2021/08/09 11:48:49;;;;;;;1.20;0.97;;;23.40;81.10;;;;;;5043722;28;20476;-75
2021/08/09 11:51:25;;;;;;;3.00;1.10;;;23.40;84.20;;;;;;5049103;28;20195;-75
2021/08/09 11:53:53;;;;;;;1.93;1.33;;;23.40;82.10;;;;;;5049624;28;20802;-74
2021/08/09 11:56:20;;;;;;;1.70;1.23;;;23.50;86.60;;;;;;5049066;28;20416;-76
2021/08/09 11:58:47;;;;;;;1.20;1.00;;;23.50;82.90;;;;;;5045417;28;20426;-75
2021/08/09 12:09:44;;;;;;;2.23;1.13;;;23.40;80.30;;;;;;5070720;27;20534;-72
2021/08/09 12:12:13;;;;;;;2.80;1.63;;;23.20;79.70;;;;;;5063285;28;20824;-72
2021/08/09 12:14:39;;;;;;;1.47;1.37;;;23.10;78.50;;;;;;5069310;28;20979;-72
2021/08/09 12:17:22;;;;;;;1.83;1.10;;;23.10;79.60;;;;;;5062130;28;20926;-72
2021/08/09 12:19:50;;;;;;;2.90;1.10;;;23.10;78.40;;;;;;5063118;28;21121;-72
2021/08/09 12:22:19;;;;;;;1.67;1.23;;;23.10;79.60;;;;;;5052288;28;20437;-72
2021/08/09 12:27:41;;;;;;;2.97;1.10;;;23.00;82.40;;;;;;5051902;28;20531;-71
2021/08/09 12:30:16;;;;;;;1.03;0.73;;;23.00;80.60;;;;;;5044515;28;20417;-71
2021/08/09 12:32:44;;;;;;;1.63;1.20;;;23.00;80.20;;;;;;5056909;28;20427;-71
2021/08/09 12:35:12;;;;;;;2.97;1.20;;;22.90;81.20;;;;;;5047516;28;20468;-71
2021/08/09 12:37:39;;;;;;;1.93;1.10;;;23.00;85.30;;;;;;5057019;28;20429;-71
2021/08/09 12:40:15;;;;;;;1.10;0.93;;;23.00;81.30;;;;;;5040155;28;20519;-71
2021/08/09 12:42:42;;;;;;;2.03;1.23;;;22.90;79.70;;;;;;5045719;28;20432;-71
2021/08/09 12:45:10;;;;;;;1.30;1.00;;;22.80;81.20;;;;;;5050318;28;20588;-71
2021/08/09 12:47:35;;;;;;;1.80;1.20;;;22.70;82.20;;;;;;5062136;28;20464;-71
2021/08/09 12:50:02;;;;;;;1.20;1.07;;;22.60;82.80;;;;;;5048184;28;20816;-71
2021/08/09 12:52:27;;;;;;;2.33;0.93;;;22.60;84.20;;;;;;5055398;28;20265;-71
2021/08/09 12:54:53;;;;;;;1.10;0.80;;;22.50;82.30;;;;;;5059063;28;20537;-71
2021/08/09 12:57:18;;;;;;;3.90;1.57;;;22.30;82.80;;;;;;5051503;28;20184;-71
2021/08/09 12:59:44;;;;;;;3.00;1.07;;;22.20;83.90;;;;;;5037371;28;20200;-71
2021/08/09 13:02:10;;;;;;;2.80;1.27;;;22.30;86.80;;;;;;5063604;28;20178;-71
2021/08/09 13:04:35;;;;;;;1.70;1.00;;;22.40;87.80;;;;;;5036719;28;20502;-71
2021/08/09 13:07:01;;;;;;;2.00;1.00;;;22.50;83.90;;;;;;5044870;28;20199;-71
2021/08/09 13:09:29;;;;;;;2.53;1.33;;;22.60;84.30;;;;;;5027281;28;20221;-71
2021/08/09 13:11:54;;;;;;;1.53;1.10;;;22.80;86.10;;;;;;5033031;28;20224;-71
2021/08/09 13:14:20;;;;;;;2.87;1.30;;;22.90;86.40;;;;;;5044147;28;20505;-71
2021/08/09 13:16:45;;;;;;;1.13;0.90;;;23.10;85.80;;;;;;5038241;28;20188;-71
2021/08/09 13:19:11;;;;;;;1.10;0.87;;;23.10;85.10;;;;;;5032747;28;20183;-71
2021/08/09 13:21:36;;;;;;;1.97;1.43;;;23.20;85.20;;;;;;5028814;28;20520;-71
2021/08/09 13:24:02;;;;;;;2.57;1.60;;;23.30;87.60;;;;;;5029330;28;20671;-71
2021/08/09 13:26:28;;;;;;;1.80;1.00;;;23.30;84.70;;;;;;5029343;28;20673;-71
2021/08/09 13:28:57;;;;;;;2.07;1.20;;;23.30;86.20;;;;;;5031066;28;20206;-71
2021/08/09 13:31:23;;;;;;;2.10;1.30;;;23.20;81.70;;;;;;5040460;28;20442;-71
2021/08/09 13:33:49;;;;;;;0.60;0.50;;;23.20;81.50;;;;;;5038822;28;20792;-71
2021/08/09 13:36:18;;;;;;;1.23;0.90;;;23.30;84.60;;;;;;5048722;28;20214;-71
2021/08/09 13:38:44;;;;;;;3.23;0.97;;;23.30;83.30;;;;;;5037421;28;20157;-72
2021/08/09 13:41:09;;;;;;;1.47;1.03;;;23.40;81.90;;;;;;5035346;28;20864;-71
2021/08/09 13:43:35;;;;;;;1.43;0.80;;;23.50;86.70;;;;;;5035216;28;20171;-71
2021/08/09 13:46:01;;;;;;;1.20;1.00;;;23.50;84.30;;;;;;5034213;28;20549;-71
2021/08/09 13:48:26;;;;;;;4.30;1.43;;;23.60;82.50;;;;;;5016064;28;20202;-71